sensor_id;sensor_type;location;lat;lon;timestamp;P1;durP1;ratioP1;P2;durP2;ratioP2
28760;SDS011;15917;50.014;8.352;2024-02-16T00:00:58;8.90;;;3.60;;
28760;SDS011;15917;50.014;8.352;2024-02-16T00:03:25;21.63;;;4.68;;
28760;SDS011;15917;50.014;8.352;2024-02-16T00:05:54;11.93;;;3.72;;
28760;SDS011;15917;50.014;8.352;2024-02-16T00:08:19;15.30;;;4.20;;
28760;SDS011;15917;50.014;8.352;2024-02-16T00:10:45;10.77;;;3.63;;
28760;SDS011;15917;50.014;8.352;2024-02-16T00:13:11;9.93;;;3.88;;
28760;SDS011;15917;50.014;8.352;2024-02-16T00:15:38;12.98;;;4.25;;
28760;SDS011;15917;50.014;8.352;2024-02-16T00:18:04;11.38;;;3.70;;
28760;SDS011;15917;50.014;8.352;2024-02-16T00:20:30;10.82;;;4.03;;
28760;SDS011;15917;50.014;8.352;2024-02-16T00:22:56;13.27;;;3.88;;
28760;SDS011;15917;50.014;8.352;2024-02-16T00:25:22;11.90;;;3.30;;
28760;SDS011;15917;50.014;8.352;2024-02-16T00:27:48;7.57;;;3.38;;
28760;SDS011;15917;50.014;8.352;2024-02-16T00:30:14;11.20;;;3.97;;
28760;SDS011;15917;50.014;8.352;2024-02-16T00:32:42;9.30;;;4.30;;
28760;SDS011;15917;50.014;8.352;2024-02-16T00:35:10;12.88;;;4.57;;
28760;SDS011;15917;50.014;8.352;2024-02-16T00:37:36;12.00;;;4.15;;
28760;SDS011;15917;50.014;8.352;2024-02-16T00:40:03;12.82;;;4.75;;
28760;SDS011;15917;50.014;8.352;2024-02-16T00:42:29;10.75;;;3.90;;
28760;SDS011;15917;50.014;8.352;2024-02-16T00:44:56;12.02;;;4.75;;
28760;SDS011;15917;50.014;8.352;2024-02-16T00:47:22;12.88;;;4.38;;
28760;SDS011;15917;50.014;8.352;2024-02-16T00:49:48;10.95;;;4.00;;
28760;SDS011;15917;50.014;8.352;2024-02-16T00:52:14;14.07;;;4.00;;
28760;SDS011;15917;50.014;8.352;2024-02-16T00:54:40;9.82;;;3.92;;
28760;SDS011;15917;50.014;8.352;2024-02-16T00:57:05;8.00;;;4.00;;
28760;SDS011;15917;50.014;8.352;2024-02-16T00:59:31;13.85;;;4.45;;
28760;SDS011;15917;50.014;8.352;2024-02-16T01:01:57;14.95;;;4.05;;
28760;SDS011;15917;50.014;8.352;2024-02-16T01:04:23;9.93;;;4.05;;
28760;SDS011;15917;50.014;8.352;2024-02-16T01:06:49;8.75;;;4.07;;
28760;SDS011;15917;50.014;8.352;2024-02-16T01:09:15;10.48;;;3.90;;
28760;SDS011;15917;50.014;8.352;2024-02-16T01:11:41;13.50;;;3.88;;
28760;SDS011;15917;50.014;8.352;2024-02-16T01:14:07;13.30;;;3.80;;
28760;SDS011;15917;50.014;8.352;2024-02-16T01:16:33;13.63;;;4.30;;
28760;SDS011;15917;50.014;8.352;2024-02-16T01:19:00;12.73;;;5.43;;
28760;SDS011;15917;50.014;8.352;2024-02-16T01:21:26;12.85;;;3.47;;
28760;SDS011;15917;50.014;8.352;2024-02-16T01:23:52;11.20;;;3.92;;
28760;SDS011;15917;50.014;8.352;2024-02-16T01:26:18;12.13;;;4.20;;
28760;SDS011;15917;50.014;8.352;2024-02-16T01:28:43;11.85;;;4.05;;
28760;SDS011;15917;50.014;8.352;2024-02-16T01:31:09;9.90;;;4.40;;
28760;SDS011;15917;50.014;8.352;2024-02-16T01:33:35;12.25;;;5.07;;
28760;SDS011;15917;50.014;8.352;2024-02-16T01:36:02;10.85;;;4.07;;
28760;SDS011;15917;50.014;8.352;2024-02-16T01:38:28;13.13;;;4.00;;
28760;SDS011;15917;50.014;8.352;2024-02-16T01:40:54;18.85;;;4.15;;
28760;SDS011;15917;50.014;8.352;2024-02-16T01:43:22;13.85;;;4.38;;
28760;SDS011;15917;50.014;8.352;2024-02-16T01:45:48;14.85;;;5.10;;
28760;SDS011;15917;50.014;8.352;2024-02-16T01:48:14;10.90;;;4.72;;
28760;SDS011;15917;50.014;8.352;2024-02-16T01:50:42;15.75;;;4.70;;
28760;SDS011;15917;50.014;8.352;2024-02-16T01:55:35;13.27;;;5.03;;
28760;SDS011;15917;50.014;8.352;2024-02-16T01:58:00;11.07;;;4.97;;
28760;SDS011;15917;50.014;8.352;2024-02-16T02:00:26;12.98;;;4.28;;
28760;SDS011;15917;50.014;8.352;2024-02-16T02:02:51;15.80;;;4.70;;
28760;SDS011;15917;50.014;8.352;2024-02-16T02:05:17;10.13;;;4.43;;
28760;SDS011;15917;50.014;8.352;2024-02-16T02:07:43;13.52;;;4.88;;
28760;SDS011;15917;50.014;8.352;2024-02-16T02:10:09;12.43;;;4.30;;
28760;SDS011;15917;50.014;8.352;2024-02-16T02:12:38;12.77;;;4.78;;
28760;SDS011;15917;50.014;8.352;2024-02-16T02:15:04;11.82;;;4.65;;
28760;SDS011;15917;50.014;8.352;2024-02-16T02:17:30;12.80;;;4.20;;
28760;SDS011;15917;50.014;8.352;2024-02-16T02:19:56;21.52;;;4.80;;
28760;SDS011;15917;50.014;8.352;2024-02-16T02:22:21;13.50;;;4.85;;
28760;SDS011;15917;50.014;8.352;2024-02-16T02:24:47;19.08;;;4.88;;
28760;SDS011;15917;50.014;8.352;2024-02-16T02:27:16;11.65;;;5.10;;
28760;SDS011;15917;50.014;8.352;2024-02-16T02:29:42;14.23;;;5.07;;
28760;SDS011;15917;50.014;8.352;2024-02-16T02:32:08;22.40;;;4.95;;
28760;SDS011;15917;50.014;8.352;2024-02-16T02:34:34;8.40;;;4.50;;
28760;SDS011;15917;50.014;8.352;2024-02-16T02:37:04;13.02;;;4.60;;
28760;SDS011;15917;50.014;8.352;2024-02-16T02:39:30;20.38;;;5.57;;
28760;SDS011;15917;50.014;8.352;2024-02-16T02:41:57;12.33;;;4.90;;
28760;SDS011;15917;50.014;8.352;2024-02-16T02:44:23;12.43;;;4.28;;
28760;SDS011;15917;50.014;8.352;2024-02-16T02:46:49;32.53;;;7.45;;
28760;SDS011;15917;50.014;8.352;2024-02-16T02:49:15;11.30;;;5.32;;
28760;SDS011;15917;50.014;8.352;2024-02-16T02:51:41;11.65;;;4.72;;
28760;SDS011;15917;50.014;8.352;2024-02-16T02:54:06;12.95;;;5.05;;
28760;SDS011;15917;50.014;8.352;2024-02-16T02:56:32;13.32;;;5.40;;
28760;SDS011;15917;50.014;8.352;2024-02-16T02:58:58;11.75;;;5.15;;
28760;SDS011;15917;50.014;8.352;2024-02-16T03:01:23;11.85;;;5.60;;
28760;SDS011;15917;50.014;8.352;2024-02-16T03:03:49;14.55;;;5.35;;
28760;SDS011;15917;50.014;8.352;2024-02-16T03:06:18;9.90;;;4.60;;
28760;SDS011;15917;50.014;8.352;2024-02-16T03:08:44;11.75;;;5.43;;
28760;SDS011;15917;50.014;8.352;2024-02-16T03:11:10;11.02;;;5.00;;
28760;SDS011;15917;50.014;8.352;2024-02-16T03:13:36;13.63;;;5.80;;
28760;SDS011;15917;50.014;8.352;2024-02-16T03:16:02;13.60;;;4.78;;
28760;SDS011;15917;50.014;8.352;2024-02-16T03:18:34;17.20;;;5.90;;
28760;SDS011;15917;50.014;8.352;2024-02-16T03:21:01;11.18;;;5.68;;
28760;SDS011;15917;50.014;8.352;2024-02-16T03:23:26;19.20;;;5.20;;
28760;SDS011;15917;50.014;8.352;2024-02-16T03:25:52;14.05;;;5.30;;
28760;SDS011;15917;50.014;8.352;2024-02-16T03:28:18;16.40;;;6.35;;
28760;SDS011;15917;50.014;8.352;2024-02-16T03:30:44;14.00;;;5.57;;
28760;SDS011;15917;50.014;8.352;2024-02-16T03:33:10;16.50;;;5.13;;
28760;SDS011;15917;50.014;8.352;2024-02-16T03:35:41;17.98;;;6.38;;
28760;SDS011;15917;50.014;8.352;2024-02-16T03:38:07;13.80;;;5.55;;
28760;SDS011;15917;50.014;8.352;2024-02-16T03:40:33;15.73;;;5.95;;
28760;SDS011;15917;50.014;8.352;2024-02-16T03:42:58;14.32;;;5.28;;
28760;SDS011;15917;50.014;8.352;2024-02-16T03:45:24;13.88;;;5.97;;
28760;SDS011;15917;50.014;8.352;2024-02-16T03:47:52;18.20;;;5.97;;
28760;SDS011;15917;50.014;8.352;2024-02-16T03:50:18;15.35;;;5.72;;
28760;SDS011;15917;50.014;8.352;2024-02-16T03:52:44;11.75;;;5.95;;
28760;SDS011;15917;50.014;8.352;2024-02-16T03:55:10;19.92;;;5.88;;
28760;SDS011;15917;50.014;8.352;2024-02-16T03:57:36;14.23;;;5.65;;
28760;SDS011;15917;50.014;8.352;2024-02-16T04:00:02;12.55;;;5.85;;
28760;SDS011;15917;50.014;8.352;2024-02-16T04:02:37;12.35;;;5.90;;
28760;SDS011;15917;50.014;8.352;2024-02-16T04:05:04;11.88;;;5.38;;
28760;SDS011;15917;50.014;8.352;2024-02-16T04:07:30;13.80;;;5.50;;
28760;SDS011;15917;50.014;8.352;2024-02-16T04:09:55;13.63;;;5.63;;
28760;SDS011;15917;50.014;8.352;2024-02-16T04:12:21;13.00;;;5.30;;
28760;SDS011;15917;50.014;8.352;2024-02-16T04:14:47;10.77;;;5.03;;
28760;SDS011;15917;50.014;8.352;2024-02-16T04:17:12;17.00;;;5.32;;
28760;SDS011;15917;50.014;8.352;2024-02-16T04:19:38;12.88;;;5.35;;
28760;SDS011;15917;50.014;8.352;2024-02-16T04:22:03;10.18;;;5.50;;
28760;SDS011;15917;50.014;8.352;2024-02-16T04:24:29;12.23;;;5.88;;
28760;SDS011;15917;50.014;8.352;2024-02-16T04:26:54;13.68;;;5.32;;
28760;SDS011;15917;50.014;8.352;2024-02-16T04:29:20;14.68;;;5.50;;
28760;SDS011;15917;50.014;8.352;2024-02-16T04:31:46;13.30;;;5.57;;
28760;SDS011;15917;50.014;8.352;2024-02-16T04:34:12;11.85;;;5.80;;
28760;SDS011;15917;50.014;8.352;2024-02-16T04:36:38;16.05;;;5.93;;
28760;SDS011;15917;50.014;8.352;2024-02-16T04:39:03;11.00;;;5.28;;
28760;SDS011;15917;50.014;8.352;2024-02-16T04:41:29;15.07;;;5.60;;
28760;SDS011;15917;50.014;8.352;2024-02-16T04:43:55;15.20;;;5.53;;
28760;SDS011;15917;50.014;8.352;2024-02-16T04:46:21;11.55;;;5.57;;
28760;SDS011;15917;50.014;8.352;2024-02-16T04:48:47;11.70;;;5.80;;
28760;SDS011;15917;50.014;8.352;2024-02-16T04:51:13;19.30;;;6.90;;
28760;SDS011;15917;50.014;8.352;2024-02-16T04:53:38;13.48;;;7.32;;
28760;SDS011;15917;50.014;8.352;2024-02-16T04:56:04;21.95;;;7.95;;
28760;SDS011;15917;50.014;8.352;2024-02-16T04:58:30;23.70;;;7.57;;
28760;SDS011;15917;50.014;8.352;2024-02-16T05:00:58;20.17;;;7.00;;
28760;SDS011;15917;50.014;8.352;2024-02-16T05:03:24;25.23;;;7.13;;
28760;SDS011;15917;50.014;8.352;2024-02-16T05:05:50;25.90;;;7.57;;
28760;SDS011;15917;50.014;8.352;2024-02-16T05:08:17;18.98;;;7.45;;
28760;SDS011;15917;50.014;8.352;2024-02-16T05:10:43;13.68;;;7.07;;
28760;SDS011;15917;50.014;8.352;2024-02-16T05:13:08;12.27;;;5.97;;
28760;SDS011;15917;50.014;8.352;2024-02-16T05:15:36;12.73;;;6.30;;
28760;SDS011;15917;50.014;8.352;2024-02-16T05:18:02;14.45;;;5.63;;
28760;SDS011;15917;50.014;8.352;2024-02-16T05:20:27;14.98;;;6.35;;
28760;SDS011;15917;50.014;8.352;2024-02-16T05:22:53;14.27;;;5.57;;
28760;SDS011;15917;50.014;8.352;2024-02-16T05:25:18;10.57;;;5.97;;
28760;SDS011;15917;50.014;8.352;2024-02-16T05:27:44;16.95;;;7.93;;
28760;SDS011;15917;50.014;8.352;2024-02-16T05:30:11;17.73;;;6.82;;
28760;SDS011;15917;50.014;8.352;2024-02-16T05:32:39;20.27;;;7.03;;
28760;SDS011;15917;50.014;8.352;2024-02-16T05:35:06;14.85;;;6.72;;
28760;SDS011;15917;50.014;8.352;2024-02-16T05:37:43;13.38;;;6.68;;
28760;SDS011;15917;50.014;8.352;2024-02-16T05:40:12;14.55;;;6.35;;
28760;SDS011;15917;50.014;8.352;2024-02-16T05:42:49;18.55;;;6.70;;
28760;SDS011;15917;50.014;8.352;2024-02-16T05:45:16;17.57;;;7.40;;
28760;SDS011;15917;50.014;8.352;2024-02-16T05:47:42;15.10;;;6.63;;
28760;SDS011;15917;50.014;8.352;2024-02-16T05:50:10;16.08;;;6.90;;
28760;SDS011;15917;50.014;8.352;2024-02-16T05:52:40;20.33;;;7.32;;
28760;SDS011;15917;50.014;8.352;2024-02-16T05:55:09;20.33;;;6.63;;
28760;SDS011;15917;50.014;8.352;2024-02-16T05:57:36;14.13;;;7.47;;
28760;SDS011;15917;50.014;8.352;2024-02-16T06:00:03;17.80;;;6.82;;
28760;SDS011;15917;50.014;8.352;2024-02-16T06:02:31;19.25;;;7.72;;
28760;SDS011;15917;50.014;8.352;2024-02-16T06:04:57;13.00;;;6.22;;
28760;SDS011;15917;50.014;8.352;2024-02-16T06:07:23;13.63;;;6.60;;
28760;SDS011;15917;50.014;8.352;2024-02-16T06:09:49;17.92;;;6.75;;
28760;SDS011;15917;50.014;8.352;2024-02-16T06:12:15;17.13;;;8.48;;
28760;SDS011;15917;50.014;8.352;2024-02-16T06:14:41;16.15;;;6.63;;
28760;SDS011;15917;50.014;8.352;2024-02-16T06:17:07;18.10;;;7.28;;
28760;SDS011;15917;50.014;8.352;2024-02-16T06:19:34;16.08;;;6.53;;
28760;SDS011;15917;50.014;8.352;2024-02-16T06:22:02;15.85;;;7.25;;
28760;SDS011;15917;50.014;8.352;2024-02-16T06:24:28;19.05;;;7.22;;
28760;SDS011;15917;50.014;8.352;2024-02-16T06:26:54;13.93;;;6.13;;
28760;SDS011;15917;50.014;8.352;2024-02-16T06:29:19;18.40;;;7.32;;
28760;SDS011;15917;50.014;8.352;2024-02-16T06:31:46;15.18;;;7.03;;
28760;SDS011;15917;50.014;8.352;2024-02-16T06:34:12;19.60;;;7.72;;
28760;SDS011;15917;50.014;8.352;2024-02-16T06:36:38;17.10;;;6.38;;
28760;SDS011;15917;50.014;8.352;2024-02-16T06:39:04;21.40;;;6.93;;
28760;SDS011;15917;50.014;8.352;2024-02-16T06:41:30;16.83;;;6.18;;
28760;SDS011;15917;50.014;8.352;2024-02-16T06:43:55;20.60;;;6.28;;
28760;SDS011;15917;50.014;8.352;2024-02-16T06:46:21;17.48;;;7.18;;
28760;SDS011;15917;50.014;8.352;2024-02-16T06:48:47;15.38;;;6.65;;
28760;SDS011;15917;50.014;8.352;2024-02-16T06:51:13;17.73;;;7.35;;
28760;SDS011;15917;50.014;8.352;2024-02-16T06:53:38;19.35;;;7.03;;
28760;SDS011;15917;50.014;8.352;2024-02-16T06:56:04;16.38;;;7.07;;
28760;SDS011;15917;50.014;8.352;2024-02-16T06:58:30;13.55;;;6.82;;
28760;SDS011;15917;50.014;8.352;2024-02-16T07:00:55;16.67;;;7.45;;
28760;SDS011;15917;50.014;8.352;2024-02-16T07:03:22;13.97;;;7.20;;
28760;SDS011;15917;50.014;8.352;2024-02-16T07:05:48;15.57;;;6.82;;
28760;SDS011;15917;50.014;8.352;2024-02-16T07:08:14;19.95;;;7.63;;
28760;SDS011;15917;50.014;8.352;2024-02-16T07:10:40;13.82;;;6.63;;
28760;SDS011;15917;50.014;8.352;2024-02-16T07:13:06;19.05;;;7.82;;
28760;SDS011;15917;50.014;8.352;2024-02-16T07:15:31;18.30;;;7.53;;
28760;SDS011;15917;50.014;8.352;2024-02-16T07:17:57;18.60;;;7.80;;
28760;SDS011;15917;50.014;8.352;2024-02-16T07:20:23;22.30;;;7.45;;
28760;SDS011;15917;50.014;8.352;2024-02-16T07:22:48;24.08;;;7.13;;
28760;SDS011;15917;50.014;8.352;2024-02-16T07:27:42;11.25;;;4.93;;
28760;SDS011;15917;50.014;8.352;2024-02-16T07:30:08;19.83;;;7.95;;
28760;SDS011;15917;50.014;8.352;2024-02-16T07:32:36;17.45;;;6.68;;
28760;SDS011;15917;50.014;8.352;2024-02-16T07:35:01;18.40;;;7.05;;
28760;SDS011;15917;50.014;8.352;2024-02-16T07:37:28;15.85;;;7.03;;
28760;SDS011;15917;50.014;8.352;2024-02-16T07:39:54;17.40;;;7.22;;
28760;SDS011;15917;50.014;8.352;2024-02-16T07:42:19;13.10;;;6.78;;
28760;SDS011;15917;50.014;8.352;2024-02-16T07:44:45;19.52;;;8.65;;
28760;SDS011;15917;50.014;8.352;2024-02-16T07:47:11;14.02;;;7.55;;
28760;SDS011;15917;50.014;8.352;2024-02-16T07:49:38;14.15;;;7.60;;
28760;SDS011;15917;50.014;8.352;2024-02-16T07:52:04;15.10;;;7.27;;
28760;SDS011;15917;50.014;8.352;2024-02-16T07:54:30;18.60;;;7.28;;
28760;SDS011;15917;50.014;8.352;2024-02-16T07:56:56;18.40;;;7.28;;
28760;SDS011;15917;50.014;8.352;2024-02-16T07:59:24;14.82;;;7.28;;
28760;SDS011;15917;50.014;8.352;2024-02-16T08:01:50;22.27;;;7.35;;
28760;SDS011;15917;50.014;8.352;2024-02-16T08:04:16;17.00;;;7.15;;
28760;SDS011;15917;50.014;8.352;2024-02-16T08:06:42;17.27;;;6.82;;
28760;SDS011;15917;50.014;8.352;2024-02-16T08:09:07;11.63;;;6.88;;
28760;SDS011;15917;50.014;8.352;2024-02-16T08:11:33;12.55;;;6.90;;
28760;SDS011;15917;50.014;8.352;2024-02-16T08:13:59;15.35;;;7.35;;
28760;SDS011;15917;50.014;8.352;2024-02-16T08:16:28;20.25;;;7.25;;
28760;SDS011;15917;50.014;8.352;2024-02-16T08:18:54;24.83;;;8.43;;
28760;SDS011;15917;50.014;8.352;2024-02-16T08:21:19;14.77;;;7.18;;
28760;SDS011;15917;50.014;8.352;2024-02-16T08:23:46;21.42;;;8.00;;
28760;SDS011;15917;50.014;8.352;2024-02-16T08:26:11;21.95;;;7.55;;
28760;SDS011;15917;50.014;8.352;2024-02-16T08:28:37;13.00;;;6.95;;
28760;SDS011;15917;50.014;8.352;2024-02-16T08:31:04;19.27;;;7.25;;
28760;SDS011;15917;50.014;8.352;2024-02-16T08:33:29;18.17;;;7.80;;
28760;SDS011;15917;50.014;8.352;2024-02-16T08:35:56;16.08;;;7.32;;
28760;SDS011;15917;50.014;8.352;2024-02-16T08:38:22;18.75;;;7.38;;
28760;SDS011;15917;50.014;8.352;2024-02-16T08:40:48;18.42;;;8.32;;
28760;SDS011;15917;50.014;8.352;2024-02-16T08:43:16;18.20;;;8.65;;
28760;SDS011;15917;50.014;8.352;2024-02-16T08:45:42;14.48;;;7.65;;
28760;SDS011;15917;50.014;8.352;2024-02-16T08:48:07;16.52;;;7.28;;
28760;SDS011;15917;50.014;8.352;2024-02-16T08:50:33;15.02;;;7.22;;
28760;SDS011;15917;50.014;8.352;2024-02-16T08:52:58;14.23;;;7.38;;
28760;SDS011;15917;50.014;8.352;2024-02-16T08:55:24;20.17;;;7.55;;
28760;SDS011;15917;50.014;8.352;2024-02-16T08:57:50;33.85;;;9.70;;
28760;SDS011;15917;50.014;8.352;2024-02-16T09:00:15;27.48;;;12.57;;
28760;SDS011;15917;50.014;8.352;2024-02-16T09:02:41;39.85;;;14.02;;
28760;SDS011;15917;50.014;8.352;2024-02-16T09:05:07;32.75;;;12.50;;
28760;SDS011;15917;50.014;8.352;2024-02-16T09:07:35;25.80;;;9.95;;
28760;SDS011;15917;50.014;8.352;2024-02-16T09:10:00;15.20;;;7.78;;
28760;SDS011;15917;50.014;8.352;2024-02-16T09:12:26;16.40;;;7.45;;
28760;SDS011;15917;50.014;8.352;2024-02-16T09:14:51;16.80;;;6.70;;
28760;SDS011;15917;50.014;8.352;2024-02-16T09:17:17;13.57;;;7.32;;
28760;SDS011;15917;50.014;8.352;2024-02-16T09:19:44;18.13;;;7.97;;
28760;SDS011;15917;50.014;8.352;2024-02-16T09:22:10;18.90;;;7.38;;
28760;SDS011;15917;50.014;8.352;2024-02-16T09:24:35;19.25;;;7.85;;
28760;SDS011;15917;50.014;8.352;2024-02-16T09:27:02;17.58;;;7.90;;
28760;SDS011;15917;50.014;8.352;2024-02-16T09:29:29;21.55;;;7.45;;
28760;SDS011;15917;50.014;8.352;2024-02-16T09:31:55;20.45;;;7.60;;
28760;SDS011;15917;50.014;8.352;2024-02-16T09:34:21;18.02;;;7.57;;
28760;SDS011;15917;50.014;8.352;2024-02-16T09:36:47;23.10;;;8.50;;
28760;SDS011;15917;50.014;8.352;2024-02-16T09:39:12;13.80;;;7.50;;
28760;SDS011;15917;50.014;8.352;2024-02-16T09:41:39;14.93;;;6.82;;
28760;SDS011;15917;50.014;8.352;2024-02-16T09:44:07;13.32;;;6.93;;
28760;SDS011;15917;50.014;8.352;2024-02-16T09:46:33;14.77;;;7.22;;
28760;SDS011;15917;50.014;8.352;2024-02-16T09:49:02;12.73;;;7.68;;
28760;SDS011;15917;50.014;8.352;2024-02-16T09:51:29;16.40;;;8.02;;
28760;SDS011;15917;50.014;8.352;2024-02-16T09:53:55;16.40;;;7.35;;
28760;SDS011;15917;50.014;8.352;2024-02-16T09:56:21;18.23;;;7.95;;
28760;SDS011;15917;50.014;8.352;2024-02-16T09:58:47;16.08;;;8.43;;
28760;SDS011;15917;50.014;8.352;2024-02-16T10:01:19;17.50;;;7.82;;
28760;SDS011;15917;50.014;8.352;2024-02-16T10:03:49;16.65;;;8.00;;
28760;SDS011;15917;50.014;8.352;2024-02-16T10:06:15;19.85;;;9.32;;
28760;SDS011;15917;50.014;8.352;2024-02-16T10:11:17;18.05;;;8.15;;
28760;SDS011;15917;50.014;8.352;2024-02-16T10:13:53;14.27;;;7.93;;
28760;SDS011;15917;50.014;8.352;2024-02-16T10:16:20;17.17;;;7.80;;
28760;SDS011;15917;50.014;8.352;2024-02-16T10:18:46;13.13;;;7.50;;
28760;SDS011;15917;50.014;8.352;2024-02-16T10:21:11;19.15;;;7.88;;
28760;SDS011;15917;50.014;8.352;2024-02-16T10:23:37;40.13;;;16.48;;
28760;SDS011;15917;50.014;8.352;2024-02-16T10:26:03;37.20;;;12.45;;
28760;SDS011;15917;50.014;8.352;2024-02-16T10:28:29;25.77;;;11.48;;
28760;SDS011;15917;50.014;8.352;2024-02-16T10:30:59;19.83;;;7.15;;
28760;SDS011;15917;50.014;8.352;2024-02-16T10:33:29;10.48;;;6.68;;
28760;SDS011;15917;50.014;8.352;2024-02-16T10:35:57;17.80;;;7.55;;
28760;SDS011;15917;50.014;8.352;2024-02-16T10:38:23;17.00;;;7.85;;
28760;SDS011;15917;50.014;8.352;2024-02-16T10:40:52;20.33;;;7.63;;
28760;SDS011;15917;50.014;8.352;2024-02-16T10:43:19;14.07;;;6.97;;
28760;SDS011;15917;50.014;8.352;2024-02-16T10:45:46;16.10;;;7.28;;
28760;SDS011;15917;50.014;8.352;2024-02-16T10:48:17;17.55;;;7.57;;
28760;SDS011;15917;50.014;8.352;2024-02-16T10:50:43;15.45;;;7.15;;
28760;SDS011;15917;50.014;8.352;2024-02-16T10:55:44;13.73;;;6.72;;
28760;SDS011;15917;50.014;8.352;2024-02-16T10:58:11;11.27;;;6.40;;
28760;SDS011;15917;50.014;8.352;2024-02-16T11:00:47;16.33;;;7.13;;
28760;SDS011;15917;50.014;8.352;2024-02-16T11:03:16;16.48;;;8.63;;
28760;SDS011;15917;50.014;8.352;2024-02-16T11:05:42;15.85;;;7.25;;
28760;SDS011;15917;50.014;8.352;2024-02-16T11:10:40;22.38;;;7.97;;
28760;SDS011;15917;50.014;8.352;2024-02-16T11:13:06;17.85;;;8.00;;
28760;SDS011;15917;50.014;8.352;2024-02-16T11:15:33;21.77;;;7.18;;
28760;SDS011;15917;50.014;8.352;2024-02-16T11:18:00;13.35;;;6.80;;
28760;SDS011;15917;50.014;8.352;2024-02-16T11:20:27;20.20;;;7.63;;
28760;SDS011;15917;50.014;8.352;2024-02-16T11:22:53;12.68;;;6.70;;
28760;SDS011;15917;50.014;8.352;2024-02-16T11:25:32;13.30;;;7.43;;
28760;SDS011;15917;50.014;8.352;2024-02-16T11:27:59;15.32;;;7.40;;
28760;SDS011;15917;50.014;8.352;2024-02-16T11:30:25;16.65;;;7.35;;
28760;SDS011;15917;50.014;8.352;2024-02-16T11:32:51;18.83;;;6.95;;
28760;SDS011;15917;50.014;8.352;2024-02-16T11:35:17;17.90;;;7.43;;
28760;SDS011;15917;50.014;8.352;2024-02-16T11:37:42;15.65;;;6.57;;
28760;SDS011;15917;50.014;8.352;2024-02-16T11:40:13;13.27;;;5.70;;
28760;SDS011;15917;50.014;8.352;2024-02-16T11:42:39;14.65;;;7.05;;
28760;SDS011;15917;50.014;8.352;2024-02-16T11:45:11;15.13;;;6.35;;
28760;SDS011;15917;50.014;8.352;2024-02-16T11:47:37;11.65;;;5.88;;
28760;SDS011;15917;50.014;8.352;2024-02-16T11:52:30;14.65;;;5.32;;
28760;SDS011;15917;50.014;8.352;2024-02-16T11:54:56;13.13;;;6.45;;
28760;SDS011;15917;50.014;8.352;2024-02-16T11:57:25;13.60;;;6.20;;
28760;SDS011;15917;50.014;8.352;2024-02-16T11:59:51;15.35;;;6.25;;
28760;SDS011;15917;50.014;8.352;2024-02-16T12:02:19;19.77;;;6.43;;
28760;SDS011;15917;50.014;8.352;2024-02-16T12:04:45;11.00;;;6.03;;
28760;SDS011;15917;50.014;8.352;2024-02-16T12:07:12;13.20;;;6.35;;
28760;SDS011;15917;50.014;8.352;2024-02-16T12:09:39;18.38;;;6.78;;
28760;SDS011;15917;50.014;8.352;2024-02-16T12:12:05;16.88;;;6.68;;
28760;SDS011;15917;50.014;8.352;2024-02-16T12:14:31;11.27;;;5.38;;
28760;SDS011;15917;50.014;8.352;2024-02-16T12:16:58;12.60;;;5.30;;
28760;SDS011;15917;50.014;8.352;2024-02-16T12:19:24;15.55;;;5.53;;
28760;SDS011;15917;50.014;8.352;2024-02-16T12:21:53;10.25;;;4.38;;
28760;SDS011;15917;50.014;8.352;2024-02-16T12:24:20;16.17;;;4.57;;
28760;SDS011;15917;50.014;8.352;2024-02-16T12:26:46;11.02;;;4.80;;
28760;SDS011;15917;50.014;8.352;2024-02-16T12:29:12;15.38;;;4.80;;
28760;SDS011;15917;50.014;8.352;2024-02-16T12:31:42;8.93;;;4.15;;
28760;SDS011;15917;50.014;8.352;2024-02-16T12:34:10;10.50;;;4.10;;
28760;SDS011;15917;50.014;8.352;2024-02-16T12:36:36;7.75;;;3.80;;
28760;SDS011;15917;50.014;8.352;2024-02-16T12:39:04;8.77;;;3.80;;
28760;SDS011;15917;50.014;8.352;2024-02-16T12:41:31;9.93;;;3.75;;
28760;SDS011;15917;50.014;8.352;2024-02-16T12:43:57;8.82;;;3.85;;
28760;SDS011;15917;50.014;8.352;2024-02-16T12:46:23;13.80;;;3.75;;
28760;SDS011;15917;50.014;8.352;2024-02-16T12:48:49;8.52;;;3.08;;
28760;SDS011;15917;50.014;8.352;2024-02-16T12:51:15;16.38;;;4.30;;
28760;SDS011;15917;50.014;8.352;2024-02-16T12:53:41;8.27;;;2.63;;
28760;SDS011;15917;50.014;8.352;2024-02-16T12:56:07;14.55;;;2.97;;
28760;SDS011;15917;50.014;8.352;2024-02-16T12:58:34;8.25;;;2.90;;
28760;SDS011;15917;50.014;8.352;2024-02-16T13:01:03;8.90;;;3.65;;
28760;SDS011;15917;50.014;8.352;2024-02-16T13:03:36;11.18;;;2.70;;
28760;SDS011;15917;50.014;8.352;2024-02-16T13:06:02;16.55;;;4.03;;
28760;SDS011;15917;50.014;8.352;2024-02-16T13:08:29;13.27;;;3.33;;
28760;SDS011;15917;50.014;8.352;2024-02-16T13:10:55;11.25;;;3.13;;
28760;SDS011;15917;50.014;8.352;2024-02-16T13:13:21;13.18;;;3.05;;
28760;SDS011;15917;50.014;8.352;2024-02-16T13:15:47;15.73;;;3.53;;
28760;SDS011;15917;50.014;8.352;2024-02-16T13:18:16;9.18;;;3.05;;
28760;SDS011;15917;50.014;8.352;2024-02-16T13:20:45;6.40;;;2.38;;
28760;SDS011;15917;50.014;8.352;2024-02-16T13:23:11;6.22;;;2.53;;
28760;SDS011;15917;50.014;8.352;2024-02-16T13:25:37;10.85;;;3.10;;
28760;SDS011;15917;50.014;8.352;2024-02-16T13:28:02;5.72;;;2.47;;
28760;SDS011;15917;50.014;8.352;2024-02-16T13:30:28;11.18;;;3.47;;
28760;SDS011;15917;50.014;8.352;2024-02-16T13:32:54;11.35;;;3.13;;
28760;SDS011;15917;50.014;8.352;2024-02-16T13:35:20;12.90;;;3.17;;
28760;SDS011;15917;50.014;8.352;2024-02-16T13:37:45;10.82;;;3.58;;
28760;SDS011;15917;50.014;8.352;2024-02-16T13:40:12;5.85;;;2.47;;
28760;SDS011;15917;50.014;8.352;2024-02-16T13:42:41;5.03;;;2.78;;
28760;SDS011;15917;50.014;8.352;2024-02-16T13:45:07;8.30;;;2.40;;
28760;SDS011;15917;50.014;8.352;2024-02-16T13:47:34;9.88;;;3.13;;
28760;SDS011;15917;50.014;8.352;2024-02-16T13:50:00;12.13;;;3.08;;
28760;SDS011;15917;50.014;8.352;2024-02-16T13:52:26;12.48;;;3.03;;
28760;SDS011;15917;50.014;8.352;2024-02-16T13:54:52;15.88;;;5.03;;
28760;SDS011;15917;50.014;8.352;2024-02-16T13:57:18;11.65;;;4.18;;
28760;SDS011;15917;50.014;8.352;2024-02-16T13:59:44;8.82;;;3.35;;
28760;SDS011;15917;50.014;8.352;2024-02-16T14:02:10;12.63;;;2.85;;
28760;SDS011;15917;50.014;8.352;2024-02-16T14:04:37;24.05;;;2.90;;
28760;SDS011;15917;50.014;8.352;2024-02-16T14:07:03;12.98;;;2.85;;
28760;SDS011;15917;50.014;8.352;2024-02-16T14:09:29;10.95;;;2.38;;
28760;SDS011;15917;50.014;8.352;2024-02-16T14:11:54;8.05;;;2.65;;
28760;SDS011;15917;50.014;8.352;2024-02-16T14:14:23;8.75;;;2.45;;
28760;SDS011;15917;50.014;8.352;2024-02-16T14:16:49;9.30;;;2.75;;
28760;SDS011;15917;50.014;8.352;2024-02-16T14:19:14;8.27;;;2.45;;
28760;SDS011;15917;50.014;8.352;2024-02-16T14:21:40;10.50;;;2.25;;
28760;SDS011;15917;50.014;8.352;2024-02-16T14:24:07;10.50;;;2.63;;
28760;SDS011;15917;50.014;8.352;2024-02-16T14:26:35;18.63;;;3.25;;
28760;SDS011;15917;50.014;8.352;2024-02-16T14:29:00;6.82;;;2.60;;
28760;SDS011;15917;50.014;8.352;2024-02-16T14:31:26;13.60;;;2.80;;
28760;SDS011;15917;50.014;8.352;2024-02-16T14:33:52;8.57;;;2.55;;
28760;SDS011;15917;50.014;8.352;2024-02-16T14:36:17;6.03;;;2.78;;
28760;SDS011;15917;50.014;8.352;2024-02-16T14:38:43;7.32;;;2.70;;
28760;SDS011;15917;50.014;8.352;2024-02-16T14:41:08;9.80;;;2.50;;
28760;SDS011;15917;50.014;8.352;2024-02-16T14:43:34;9.02;;;2.30;;
28760;SDS011;15917;50.014;8.352;2024-02-16T14:46:00;8.20;;;3.03;;